sensor_id;sensor_type;location;lat;lon;timestamp;P1;durP1;ratioP1;P2;durP2;ratioP2
20482;SDS011;10400;53.198;6.592;2024-01-16T00:01:05;3.47;;;0.97;;
20482;SDS011;10400;53.198;6.592;2024-01-16T00:03:31;6.53;;;1.30;;
20482;SDS011;10400;53.198;6.592;2024-01-16T00:05:57;8.67;;;1.70;;
20482;SDS011;10400;53.198;6.592;2024-01-16T00:08:23;10.50;;;1.57;;
20482;SDS011;10400;53.198;6.592;2024-01-16T00:10:49;10.97;;;1.67;;
20482;SDS011;10400;53.198;6.592;2024-01-16T00:13:15;6.43;;;1.57;;
20482;SDS011;10400;53.198;6.592;2024-01-16T00:15:42;7.90;;;1.40;;
20482;SDS011;10400;53.198;6.592;2024-01-16T00:18:08;7.60;;;1.23;;
20482;SDS011;10400;53.198;6.592;2024-01-16T00:20:34;6.60;;;1.30;;
20482;SDS011;10400;53.198;6.592;2024-01-16T00:23:00;3.93;;;1.37;;
20482;SDS011;10400;53.198;6.592;2024-01-16T00:25:26;7.53;;;1.30;;
20482;SDS011;10400;53.198;6.592;2024-01-16T00:27:51;5.87;;;1.30;;
20482;SDS011;10400;53.198;6.592;2024-01-16T00:30:17;6.97;;;1.10;;
20482;SDS011;10400;53.198;6.592;2024-01-16T00:32:43;7.27;;;1.20;;
20482;SDS011;10400;53.198;6.592;2024-01-16T00:35:09;4.97;;;1.07;;
20482;SDS011;10400;53.198;6.592;2024-01-16T00:37:37;4.97;;;0.90;;
20482;SDS011;10400;53.198;6.592;2024-01-16T00:40:04;3.80;;;1.10;;
20482;SDS011;10400;53.198;6.592;2024-01-16T00:42:32;4.63;;;1.00;;
20482;SDS011;10400;53.198;6.592;2024-01-16T00:44:58;6.27;;;1.10;;
20482;SDS011;10400;53.198;6.592;2024-01-16T00:47:24;4.43;;;1.60;;
20482;SDS011;10400;53.198;6.592;2024-01-16T00:49:49;2.83;;;0.80;;
20482;SDS011;10400;53.198;6.592;2024-01-16T00:52:15;3.73;;;1.00;;
20482;SDS011;10400;53.198;6.592;2024-01-16T00:54:42;3.83;;;0.90;;
20482;SDS011;10400;53.198;6.592;2024-01-16T00:57:08;3.30;;;0.90;;
20482;SDS011;10400;53.198;6.592;2024-01-16T00:59:33;3.17;;;0.97;;
20482;SDS011;10400;53.198;6.592;2024-01-16T01:01:59;3.93;;;1.20;;
20482;SDS011;10400;53.198;6.592;2024-01-16T01:04:24;6.37;;;1.10;;
20482;SDS011;10400;53.198;6.592;2024-01-16T01:06:50;3.37;;;1.00;;
20482;SDS011;10400;53.198;6.592;2024-01-16T01:09:16;6.57;;;0.97;;
20482;SDS011;10400;53.198;6.592;2024-01-16T01:11:42;4.60;;;1.10;;
20482;SDS011;10400;53.198;6.592;2024-01-16T01:14:07;4.47;;;1.00;;
20482;SDS011;10400;53.198;6.592;2024-01-16T01:16:33;6.47;;;1.40;;
20482;SDS011;10400;53.198;6.592;2024-01-16T01:18:59;6.17;;;1.20;;
20482;SDS011;10400;53.198;6.592;2024-01-16T01:21:24;5.03;;;1.23;;
20482;SDS011;10400;53.198;6.592;2024-01-16T01:23:50;5.90;;;1.10;;
20482;SDS011;10400;53.198;6.592;2024-01-16T01:26:16;4.13;;;1.20;;
20482;SDS011;10400;53.198;6.592;2024-01-16T01:28:44;7.63;;;1.57;;
20482;SDS011;10400;53.198;6.592;2024-01-16T01:31:10;6.57;;;1.20;;
20482;SDS011;10400;53.198;6.592;2024-01-16T01:33:37;5.87;;;1.10;;
20482;SDS011;10400;53.198;6.592;2024-01-16T01:36:02;5.50;;;1.30;;
20482;SDS011;10400;53.198;6.592;2024-01-16T01:38:28;5.83;;;1.47;;
20482;SDS011;10400;53.198;6.592;2024-01-16T01:40:54;7.90;;;1.80;;
20482;SDS011;10400;53.198;6.592;2024-01-16T01:43:20;8.90;;;1.70;;
20482;SDS011;10400;53.198;6.592;2024-01-16T01:45:53;9.33;;;1.50;;
20482;SDS011;10400;53.198;6.592;2024-01-16T01:48:33;7.43;;;1.23;;
20482;SDS011;10400;53.198;6.592;2024-01-16T01:51:00;8.67;;;1.20;;
20482;SDS011;10400;53.198;6.592;2024-01-16T01:53:27;2.67;;;1.20;;
20482;SDS011;10400;53.198;6.592;2024-01-16T01:55:53;6.67;;;1.43;;
20482;SDS011;10400;53.198;6.592;2024-01-16T01:58:20;7.23;;;1.00;;
20482;SDS011;10400;53.198;6.592;2024-01-16T02:00:46;8.90;;;1.43;;
20482;SDS011;10400;53.198;6.592;2024-01-16T02:03:12;8.87;;;1.30;;
20482;SDS011;10400;53.198;6.592;2024-01-16T02:05:38;6.97;;;1.10;;
20482;SDS011;10400;53.198;6.592;2024-01-16T02:08:04;4.20;;;1.20;;
20482;SDS011;10400;53.198;6.592;2024-01-16T02:10:31;4.30;;;1.23;;
20482;SDS011;10400;53.198;6.592;2024-01-16T02:12:57;6.47;;;1.20;;
20482;SDS011;10400;53.198;6.592;2024-01-16T02:15:23;8.33;;;1.40;;
20482;SDS011;10400;53.198;6.592;2024-01-16T02:17:49;4.17;;;1.00;;
20482;SDS011;10400;53.198;6.592;2024-01-16T02:20:16;3.63;;;0.97;;
20482;SDS011;10400;53.198;6.592;2024-01-16T02:22:42;10.10;;;1.33;;
20482;SDS011;10400;53.198;6.592;2024-01-16T02:25:13;3.93;;;1.20;;
20482;SDS011;10400;53.198;6.592;2024-01-16T02:27:39;4.07;;;1.37;;
20482;SDS011;10400;53.198;6.592;2024-01-16T02:30:04;6.40;;;1.10;;
20482;SDS011;10400;53.198;6.592;2024-01-16T02:32:31;7.20;;;1.00;;
20482;SDS011;10400;53.198;6.592;2024-01-16T02:34:57;5.97;;;1.20;;
20482;SDS011;10400;53.198;6.592;2024-01-16T02:37:23;4.63;;;1.30;;
20482;SDS011;10400;53.198;6.592;2024-01-16T02:39:49;4.30;;;0.80;;
20482;SDS011;10400;53.198;6.592;2024-01-16T02:42:15;4.97;;;1.60;;
20482;SDS011;10400;53.198;6.592;2024-01-16T02:44:41;5.10;;;0.97;;
20482;SDS011;10400;53.198;6.592;2024-01-16T02:47:06;6.67;;;1.20;;
20482;SDS011;10400;53.198;6.592;2024-01-16T02:49:32;5.00;;;1.20;;
20482;SDS011;10400;53.198;6.592;2024-01-16T02:51:58;3.03;;;1.00;;
20482;SDS011;10400;53.198;6.592;2024-01-16T02:54:24;5.30;;;1.10;;
20482;SDS011;10400;53.198;6.592;2024-01-16T02:56:49;5.10;;;1.20;;
20482;SDS011;10400;53.198;6.592;2024-01-16T02:59:15;3.83;;;0.83;;
20482;SDS011;10400;53.198;6.592;2024-01-16T03:01:41;3.23;;;0.87;;
20482;SDS011;10400;53.198;6.592;2024-01-16T03:04:07;2.53;;;1.00;;
20482;SDS011;10400;53.198;6.592;2024-01-16T03:06:34;7.90;;;1.40;;
20482;SDS011;10400;53.198;6.592;2024-01-16T03:08:59;3.30;;;1.30;;
20482;SDS011;10400;53.198;6.592;2024-01-16T03:11:25;7.10;;;1.40;;
20482;SDS011;10400;53.198;6.592;2024-01-16T03:13:51;8.23;;;1.50;;
20482;SDS011;10400;53.198;6.592;2024-01-16T03:16:18;6.13;;;1.10;;
20482;SDS011;10400;53.198;6.592;2024-01-16T03:18:44;5.73;;;1.20;;
20482;SDS011;10400;53.198;6.592;2024-01-16T03:21:10;3.90;;;1.17;;
20482;SDS011;10400;53.198;6.592;2024-01-16T03:23:39;3.17;;;1.27;;
20482;SDS011;10400;53.198;6.592;2024-01-16T03:26:05;5.57;;;1.03;;
20482;SDS011;10400;53.198;6.592;2024-01-16T03:28:30;5.73;;;1.47;;
20482;SDS011;10400;53.198;6.592;2024-01-16T03:30:56;11.07;;;1.80;;
20482;SDS011;10400;53.198;6.592;2024-01-16T03:33:22;5.27;;;1.30;;
20482;SDS011;10400;53.198;6.592;2024-01-16T03:35:47;9.37;;;1.43;;
20482;SDS011;10400;53.198;6.592;2024-01-16T03:38:13;5.47;;;1.13;;
20482;SDS011;10400;53.198;6.592;2024-01-16T03:40:39;7.50;;;1.50;;
20482;SDS011;10400;53.198;6.592;2024-01-16T03:43:04;10.50;;;1.63;;
20482;SDS011;10400;53.198;6.592;2024-01-16T03:45:31;5.67;;;1.30;;
20482;SDS011;10400;53.198;6.592;2024-01-16T03:47:56;8.00;;;1.50;;
20482;SDS011;10400;53.198;6.592;2024-01-16T03:50:23;6.13;;;1.60;;
20482;SDS011;10400;53.198;6.592;2024-01-16T03:52:48;13.07;;;1.70;;
20482;SDS011;10400;53.198;6.592;2024-01-16T03:55:14;8.47;;;1.27;;
20482;SDS011;10400;53.198;6.592;2024-01-16T03:57:40;9.37;;;1.63;;
20482;SDS011;10400;53.198;6.592;2024-01-16T04:00:05;6.13;;;1.53;;
20482;SDS011;10400;53.198;6.592;2024-01-16T04:02:32;8.07;;;1.70;;
20482;SDS011;10400;53.198;6.592;2024-01-16T04:04:57;7.53;;;1.20;;
20482;SDS011;10400;53.198;6.592;2024-01-16T04:07:23;8.00;;;1.40;;
20482;SDS011;10400;53.198;6.592;2024-01-16T04:09:51;10.67;;;2.03;;
20482;SDS011;10400;53.198;6.592;2024-01-16T04:12:17;7.03;;;1.17;;
20482;SDS011;10400;53.198;6.592;2024-01-16T04:14:42;15.77;;;1.80;;
20482;SDS011;10400;53.198;6.592;2024-01-16T04:17:08;9.53;;;1.40;;
20482;SDS011;10400;53.198;6.592;2024-01-16T04:19:34;12.30;;;3.20;;
20482;SDS011;10400;53.198;6.592;2024-01-16T04:22:00;8.53;;;1.53;;
20482;SDS011;10400;53.198;6.592;2024-01-16T04:24:30;8.70;;;1.53;;
20482;SDS011;10400;53.198;6.592;2024-01-16T04:26:55;6.27;;;1.40;;
20482;SDS011;10400;53.198;6.592;2024-01-16T04:29:21;11.03;;;1.80;;
20482;SDS011;10400;53.198;6.592;2024-01-16T04:31:47;6.23;;;1.50;;
20482;SDS011;10400;53.198;6.592;2024-01-16T04:34:12;13.80;;;1.80;;
20482;SDS011;10400;53.198;6.592;2024-01-16T04:36:38;12.63;;;2.00;;
20482;SDS011;10400;53.198;6.592;2024-01-16T04:39:04;5.80;;;1.50;;
20482;SDS011;10400;53.198;6.592;2024-01-16T04:41:29;9.37;;;1.47;;
20482;SDS011;10400;53.198;6.592;2024-01-16T04:43:55;9.27;;;1.80;;
20482;SDS011;10400;53.198;6.592;2024-01-16T04:46:20;10.23;;;1.50;;
20482;SDS011;10400;53.198;6.592;2024-01-16T04:48:46;5.50;;;1.40;;
20482;SDS011;10400;53.198;6.592;2024-01-16T04:51:12;9.20;;;3.07;;
20482;SDS011;10400;53.198;6.592;2024-01-16T04:53:37;12.40;;;1.67;;
20482;SDS011;10400;53.198;6.592;2024-01-16T04:56:04;7.57;;;1.57;;
20482;SDS011;10400;53.198;6.592;2024-01-16T04:58:29;8.17;;;1.50;;
20482;SDS011;10400;53.198;6.592;2024-01-16T05:00:55;7.00;;;1.60;;
20482;SDS011;10400;53.198;6.592;2024-01-16T05:03:21;6.90;;;1.40;;
20482;SDS011;10400;53.198;6.592;2024-01-16T05:05:46;4.07;;;1.23;;
20482;SDS011;10400;53.198;6.592;2024-01-16T05:08:12;4.33;;;1.40;;
20482;SDS011;10400;53.198;6.592;2024-01-16T05:10:37;7.73;;;1.60;;
20482;SDS011;10400;53.198;6.592;2024-01-16T05:13:03;7.57;;;1.20;;
20482;SDS011;10400;53.198;6.592;2024-01-16T05:15:29;6.23;;;1.20;;
20482;SDS011;10400;53.198;6.592;2024-01-16T05:17:54;8.30;;;1.77;;
20482;SDS011;10400;53.198;6.592;2024-01-16T05:20:20;6.87;;;1.90;;
20482;SDS011;10400;53.198;6.592;2024-01-16T05:22:46;7.10;;;1.53;;
20482;SDS011;10400;53.198;6.592;2024-01-16T05:25:12;8.07;;;1.73;;
20482;SDS011;10400;53.198;6.592;2024-01-16T05:27:38;6.77;;;1.53;;
20482;SDS011;10400;53.198;6.592;2024-01-16T05:30:03;7.23;;;1.30;;
20482;SDS011;10400;53.198;6.592;2024-01-16T05:32:29;9.73;;;1.60;;
20482;SDS011;10400;53.198;6.592;2024-01-16T05:34:55;9.77;;;1.40;;
20482;SDS011;10400;53.198;6.592;2024-01-16T05:37:21;8.50;;;1.50;;
20482;SDS011;10400;53.198;6.592;2024-01-16T05:39:46;4.97;;;1.40;;
20482;SDS011;10400;53.198;6.592;2024-01-16T05:42:12;7.73;;;1.47;;
20482;SDS011;10400;53.198;6.592;2024-01-16T05:44:38;5.07;;;1.30;;
20482;SDS011;10400;53.198;6.592;2024-01-16T05:47:04;11.67;;;1.77;;
20482;SDS011;10400;53.198;6.592;2024-01-16T05:49:30;6.37;;;1.47;;
20482;SDS011;10400;53.198;6.592;2024-01-16T05:51:56;9.10;;;1.57;;
20482;SDS011;10400;53.198;6.592;2024-01-16T05:54:22;6.90;;;1.33;;
20482;SDS011;10400;53.198;6.592;2024-01-16T05:56:48;10.50;;;1.50;;
20482;SDS011;10400;53.198;6.592;2024-01-16T05:59:14;5.87;;;1.67;;
20482;SDS011;10400;53.198;6.592;2024-01-16T06:01:40;7.47;;;1.30;;
20482;SDS011;10400;53.198;6.592;2024-01-16T06:04:06;7.87;;;1.20;;
20482;SDS011;10400;53.198;6.592;2024-01-16T06:06:32;4.33;;;1.20;;
20482;SDS011;10400;53.198;6.592;2024-01-16T06:08:58;6.67;;;1.83;;
20482;SDS011;10400;53.198;6.592;2024-01-16T06:11:31;6.53;;;1.47;;
20482;SDS011;10400;53.198;6.592;2024-01-16T06:13:57;6.00;;;1.53;;
20482;SDS011;10400;53.198;6.592;2024-01-16T06:16:24;13.63;;;2.87;;
20482;SDS011;10400;53.198;6.592;2024-01-16T06:18:50;8.37;;;1.80;;
20482;SDS011;10400;53.198;6.592;2024-01-16T06:21:16;10.10;;;1.70;;
20482;SDS011;10400;53.198;6.592;2024-01-16T06:23:42;14.40;;;2.77;;
20482;SDS011;10400;53.198;6.592;2024-01-16T06:26:08;9.50;;;1.50;;
20482;SDS011;10400;53.198;6.592;2024-01-16T06:28:34;5.03;;;1.73;;
20482;SDS011;10400;53.198;6.592;2024-01-16T06:31:00;6.63;;;1.80;;
20482;SDS011;10400;53.198;6.592;2024-01-16T06:33:26;8.70;;;1.90;;
20482;SDS011;10400;53.198;6.592;2024-01-16T06:35:51;8.63;;;1.50;;
20482;SDS011;10400;53.198;6.592;2024-01-16T06:38:19;5.73;;;1.50;;
20482;SDS011;10400;53.198;6.592;2024-01-16T06:40:45;10.57;;;2.13;;
20482;SDS011;10400;53.198;6.592;2024-01-16T06:43:11;9.80;;;1.93;;
20482;SDS011;10400;53.198;6.592;2024-01-16T06:45:40;5.17;;;1.07;;
20482;SDS011;10400;53.198;6.592;2024-01-16T06:48:07;8.10;;;1.90;;
20482;SDS011;10400;53.198;6.592;2024-01-16T06:50:33;6.73;;;1.77;;
20482;SDS011;10400;53.198;6.592;2024-01-16T06:52:58;10.07;;;2.30;;
20482;SDS011;10400;53.198;6.592;2024-01-16T06:55:24;8.17;;;1.70;;
20482;SDS011;10400;53.198;6.592;2024-01-16T06:57:49;9.97;;;1.60;;
20482;SDS011;10400;53.198;6.592;2024-01-16T07:00:15;9.10;;;1.53;;
20482;SDS011;10400;53.198;6.592;2024-01-16T07:02:41;7.50;;;1.57;;
20482;SDS011;10400;53.198;6.592;2024-01-16T07:05:08;10.93;;;1.97;;
20482;SDS011;10400;53.198;6.592;2024-01-16T07:07:34;8.70;;;2.10;;
20482;SDS011;10400;53.198;6.592;2024-01-16T07:10:00;9.53;;;1.70;;
20482;SDS011;10400;53.198;6.592;2024-01-16T07:12:26;6.27;;;1.70;;
20482;SDS011;10400;53.198;6.592;2024-01-16T07:14:51;8.17;;;1.63;;
20482;SDS011;10400;53.198;6.592;2024-01-16T07:17:17;5.13;;;1.40;;
20482;SDS011;10400;53.198;6.592;2024-01-16T07:19:43;5.67;;;1.63;;
20482;SDS011;10400;53.198;6.592;2024-01-16T07:22:08;9.27;;;1.30;;
20482;SDS011;10400;53.198;6.592;2024-01-16T07:24:34;6.40;;;2.70;;
20482;SDS011;10400;53.198;6.592;2024-01-16T07:27:00;5.63;;;1.40;;
20482;SDS011;10400;53.198;6.592;2024-01-16T07:29:25;5.33;;;1.50;;
20482;SDS011;10400;53.198;6.592;2024-01-16T07:31:51;5.40;;;1.57;;
20482;SDS011;10400;53.198;6.592;2024-01-16T07:34:17;2.43;;;1.27;;
20482;SDS011;10400;53.198;6.592;2024-01-16T07:36:47;10.07;;;1.40;;
20482;SDS011;10400;53.198;6.592;2024-01-16T07:39:12;6.67;;;1.50;;
20482;SDS011;10400;53.198;6.592;2024-01-16T07:41:39;10.27;;;1.30;;
20482;SDS011;10400;53.198;6.592;2024-01-16T07:44:05;11.43;;;1.60;;
20482;SDS011;10400;53.198;6.592;2024-01-16T07:46:31;8.57;;;1.73;;
20482;SDS011;10400;53.198;6.592;2024-01-16T07:48:56;5.00;;;1.43;;
20482;SDS011;10400;53.198;6.592;2024-01-16T07:51:22;6.40;;;1.40;;
20482;SDS011;10400;53.198;6.592;2024-01-16T07:53:48;10.57;;;1.50;;
20482;SDS011;10400;53.198;6.592;2024-01-16T07:56:16;11.30;;;1.50;;
20482;SDS011;10400;53.198;6.592;2024-01-16T07:58:42;6.87;;;1.30;;
20482;SDS011;10400;53.198;6.592;2024-01-16T08:01:08;4.27;;;1.30;;
20482;SDS011;10400;53.198;6.592;2024-01-16T08:03:33;6.43;;;1.70;;
20482;SDS011;10400;53.198;6.592;2024-01-16T08:05:59;5.00;;;1.37;;
20482;SDS011;10400;53.198;6.592;2024-01-16T08:08:24;8.43;;;1.60;;
20482;SDS011;10400;53.198;6.592;2024-01-16T08:10:50;3.57;;;1.17;;
20482;SDS011;10400;53.198;6.592;2024-01-16T08:13:16;3.47;;;1.20;;
20482;SDS011;10400;53.198;6.592;2024-01-16T08:15:42;3.13;;;0.93;;
20482;SDS011;10400;53.198;6.592;2024-01-16T08:18:07;4.53;;;1.40;;
20482;SDS011;10400;53.198;6.592;2024-01-16T08:20:33;8.87;;;1.40;;
20482;SDS011;10400;53.198;6.592;2024-01-16T08:22:58;3.83;;;1.07;;
20482;SDS011;10400;53.198;6.592;2024-01-16T08:25:24;8.43;;;1.20;;
20482;SDS011;10400;53.198;6.592;2024-01-16T08:27:50;4.00;;;1.17;;
20482;SDS011;10400;53.198;6.592;2024-01-16T08:30:15;10.30;;;1.27;;
20482;SDS011;10400;53.198;6.592;2024-01-16T08:32:41;10.37;;;1.43;;
20482;SDS011;10400;53.198;6.592;2024-01-16T08:35:07;4.70;;;0.97;;
20482;SDS011;10400;53.198;6.592;2024-01-16T08:37:33;3.73;;;0.90;;
20482;SDS011;10400;53.198;6.592;2024-01-16T08:39:59;5.90;;;1.37;;
20482;SDS011;10400;53.198;6.592;2024-01-16T08:42:25;4.10;;;1.10;;
20482;SDS011;10400;53.198;6.592;2024-01-16T08:44:51;5.73;;;1.40;;
20482;SDS011;10400;53.198;6.592;2024-01-16T08:47:17;7.03;;;2.00;;
20482;SDS011;10400;53.198;6.592;2024-01-16T08:49:43;4.33;;;1.40;;
20482;SDS011;10400;53.198;6.592;2024-01-16T08:52:08;5.27;;;1.53;;
20482;SDS011;10400;53.198;6.592;2024-01-16T08:54:35;10.20;;;1.67;;
20482;SDS011;10400;53.198;6.592;2024-01-16T08:57:00;7.17;;;1.50;;
20482;SDS011;10400;53.198;6.592;2024-01-16T08:59:26;6.40;;;1.40;;
20482;SDS011;10400;53.198;6.592;2024-01-16T09:01:53;5.83;;;1.47;;
20482;SDS011;10400;53.198;6.592;2024-01-16T09:04:19;4.83;;;1.47;;
20482;SDS011;10400;53.198;6.592;2024-01-16T09:06:44;5.40;;;1.73;;
20482;SDS011;10400;53.198;6.592;2024-01-16T09:09:11;4.23;;;1.10;;
20482;SDS011;10400;53.198;6.592;2024-01-16T09:11:37;4.57;;;1.03;;
20482;SDS011;10400;53.198;6.592;2024-01-16T09:14:03;5.80;;;1.27;;
20482;SDS011;10400;53.198;6.592;2024-01-16T09:16:29;6.80;;;1.53;;
20482;SDS011;10400;53.198;6.592;2024-01-16T09:18:54;4.10;;;1.07;;
20482;SDS011;10400;53.198;6.592;2024-01-16T09:21:20;6.37;;;1.47;;
20482;SDS011;10400;53.198;6.592;2024-01-16T09:23:46;5.70;;;1.43;;
20482;SDS011;10400;53.198;6.592;2024-01-16T09:26:11;3.30;;;1.23;;
20482;SDS011;10400;53.198;6.592;2024-01-16T09:28:37;5.87;;;1.27;;
20482;SDS011;10400;53.198;6.592;2024-01-16T09:31:05;6.93;;;1.80;;
20482;SDS011;10400;53.198;6.592;2024-01-16T09:33:31;3.03;;;1.30;;
20482;SDS011;10400;53.198;6.592;2024-01-16T09:35:58;2.77;;;1.30;;
20482;SDS011;10400;53.198;6.592;2024-01-16T09:38:24;2.57;;;0.90;;
20482;SDS011;10400;53.198;6.592;2024-01-16T09:40:49;6.60;;;1.33;;
20482;SDS011;10400;53.198;6.592;2024-01-16T09:43:17;7.73;;;1.33;;
20482;SDS011;10400;53.198;6.592;2024-01-16T09:45:43;2.80;;;1.00;;
20482;SDS011;10400;53.198;6.592;2024-01-16T09:48:12;8.07;;;1.47;;
20482;SDS011;10400;53.198;6.592;2024-01-16T09:50:38;5.80;;;1.40;;
20482;SDS011;10400;53.198;6.592;2024-01-16T09:53:04;6.20;;;2.17;;
20482;SDS011;10400;53.198;6.592;2024-01-16T09:55:30;10.90;;;1.27;;
20482;SDS011;10400;53.198;6.592;2024-01-16T09:57:55;2.97;;;1.27;;
20482;SDS011;10400;53.198;6.592;2024-01-16T10:00:22;8.70;;;1.30;;
20482;SDS011;10400;53.198;6.592;2024-01-16T10:02:50;6.63;;;1.67;;
20482;SDS011;10400;53.198;6.592;2024-01-16T10:05:18;3.43;;;1.20;;
20482;SDS011;10400;53.198;6.592;2024-01-16T10:07:43;4.10;;;1.40;;
20482;SDS011;10400;53.198;6.592;2024-01-16T10:10:09;9.43;;;1.47;;
20482;SDS011;10400;53.198;6.592;2024-01-16T10:12:38;3.57;;;1.13;;
20482;SDS011;10400;53.198;6.592;2024-01-16T10:15:05;4.30;;;1.00;;
20482;SDS011;10400;53.198;6.592;2024-01-16T10:17:39;5.10;;;1.30;;
20482;SDS011;10400;53.198;6.592;2024-01-16T10:20:09;8.13;;;1.40;;
20482;SDS011;10400;53.198;6.592;2024-01-16T10:22:41;6.57;;;1.20;;
20482;SDS011;10400;53.198;6.592;2024-01-16T10:25:16;2.77;;;0.90;;
20482;SDS011;10400;53.198;6.592;2024-01-16T10:27:44;5.87;;;1.20;;
20482;SDS011;10400;53.198;6.592;2024-01-16T10:30:10;8.27;;;1.10;;
20482;SDS011;10400;53.198;6.592;2024-01-16T10:32:37;8.00;;;1.20;;
20482;SDS011;10400;53.198;6.592;2024-01-16T10:35:10;4.30;;;1.10;;
20482;SDS011;10400;53.198;6.592;2024-01-16T10:37:46;2.60;;;0.97;;
20482;SDS011;10400;53.198;6.592;2024-01-16T10:40:17;4.57;;;1.70;;
20482;SDS011;10400;53.198;6.592;2024-01-16T10:42:44;5.30;;;1.80;;
20482;SDS011;10400;53.198;6.592;2024-01-16T10:45:16;7.33;;;1.60;;
20482;SDS011;10400;53.198;6.592;2024-01-16T10:47:43;2.83;;;1.50;;
20482;SDS011;10400;53.198;6.592;2024-01-16T10:50:11;5.67;;;2.17;;
20482;SDS011;10400;53.198;6.592;2024-01-16T10:52:37;4.47;;;1.43;;
20482;SDS011;10400;53.198;6.592;2024-01-16T10:55:18;7.47;;;1.40;;
20482;SDS011;10400;53.198;6.592;2024-01-16T10:57:46;4.03;;;1.37;;
20482;SDS011;10400;53.198;6.592;2024-01-16T11:00:19;4.87;;;1.60;;
20482;SDS011;10400;53.198;6.592;2024-01-16T11:05:19;3.53;;;1.60;;
20482;SDS011;10400;53.198;6.592;2024-01-16T11:07:46;4.27;;;2.00;;
20482;SDS011;10400;53.198;6.592;2024-01-16T11:10:12;5.17;;;1.93;;
20482;SDS011;10400;53.198;6.592;2024-01-16T11:12:39;4.90;;;2.90;;
20482;SDS011;10400;53.198;6.592;2024-01-16T11:15:06;8.53;;;2.73;;
20482;SDS011;10400;53.198;6.592;2024-01-16T11:17:37;7.87;;;2.60;;
20482;SDS011;10400;53.198;6.592;2024-01-16T11:20:04;6.33;;;2.70;;
20482;SDS011;10400;53.198;6.592;2024-01-16T11:22:35;6.53;;;3.30;;
20482;SDS011;10400;53.198;6.592;2024-01-16T11:25:09;8.90;;;3.17;;
20482;SDS011;10400;53.198;6.592;2024-01-16T11:27:39;6.57;;;3.00;;
20482;SDS011;10400;53.198;6.592;2024-01-16T11:30:06;5.67;;;2.80;;
20482;SDS011;10400;53.198;6.592;2024-01-16T11:32:37;5.53;;;2.67;;
20482;SDS011;10400;53.198;6.592;2024-01-16T11:35:05;4.97;;;2.60;;
20482;SDS011;10400;53.198;6.592;2024-01-16T11:37:31;5.83;;;2.87;;
20482;SDS011;10400;53.198;6.592;2024-01-16T11:42:43;2.60;;;1.90;;
20482;SDS011;10400;53.198;6.592;2024-01-16T11:48:14;3.03;;;1.60;;
20482;SDS011;10400;53.198;6.592;2024-01-16T11:50:40;1.60;;;1.27;;
20482;SDS011;10400;53.198;6.592;2024-01-16T11:53:07;6.13;;;1.57;;
20482;SDS011;10400;53.198;6.592;2024-01-16T11:55:33;4.73;;;1.53;;
20482;SDS011;10400;53.198;6.592;2024-01-16T12:01:11;3.70;;;1.40;;
20482;SDS011;10400;53.198;6.592;2024-01-16T12:03:37;3.40;;;1.30;;
20482;SDS011;10400;53.198;6.592;2024-01-16T12:06:03;3.70;;;1.30;;
20482;SDS011;10400;53.198;6.592;2024-01-16T12:08:31;1.80;;;1.30;;
20482;SDS011;10400;53.198;6.592;2024-01-16T12:10:57;2.93;;;1.40;;
20482;SDS011;10400;53.198;6.592;2024-01-16T12:13:24;3.30;;;1.43;;
20482;SDS011;10400;53.198;6.592;2024-01-16T12:15:59;3.95;;;1.50;;
20482;SDS011;10400;53.198;6.592;2024-01-16T12:18:26;2.97;;;1.20;;
20482;SDS011;10400;53.198;6.592;2024-01-16T12:20:51;4.67;;;1.40;;
20482;SDS011;10400;53.198;6.592;2024-01-16T12:23:17;6.40;;;1.50;;
20482;SDS011;10400;53.198;6.592;2024-01-16T12:25:44;4.73;;;1.50;;
20482;SDS011;10400;53.198;6.592;2024-01-16T12:28:09;4.80;;;1.30;;
20482;SDS011;10400;53.198;6.592;2024-01-16T12:30:36;6.10;;;1.77;;
20482;SDS011;10400;53.198;6.592;2024-01-16T12:33:03;7.33;;;2.17;;
20482;SDS011;10400;53.198;6.592;2024-01-16T12:38:04;3.20;;;1.50;;
20482;SDS011;10400;53.198;6.592;2024-01-16T12:40:32;2.23;;;1.30;;
20482;SDS011;10400;53.198;6.592;2024-01-16T12:42:58;4.07;;;1.77;;
20482;SDS011;10400;53.198;6.592;2024-01-16T12:45:24;7.80;;;2.10;;
20482;SDS011;10400;53.198;6.592;2024-01-16T12:47:53;6.03;;;2.03;;
20482;SDS011;10400;53.198;6.592;2024-01-16T12:50:20;6.20;;;1.80;;
20482;SDS011;10400;53.198;6.592;2024-01-16T12:53:01;6.80;;;1.97;;
20482;SDS011;10400;53.198;6.592;2024-01-16T12:55:31;6.55;;;1.95;;
20482;SDS011;10400;53.198;6.592;2024-01-16T12:58:13;8.82;;;2.30;;
20482;SDS011;10400;53.198;6.592;2024-01-16T13:00:50;10.98;;;2.70;;
20482;SDS011;10400;53.198;6.592;2024-01-16T13:03:20;9.47;;;2.60;;
20482;SDS011;10400;53.198;6.592;2024-01-16T13:05:56;6.38;;;2.15;;
20482;SDS011;10400;53.198;6.592;2024-01-16T13:08:23;6.90;;;2.85;;
20482;SDS011;10400;53.198;6.592;2024-01-16T13:11:06;13.03;;;3.10;;
20482;SDS011;10400;53.198;6.592;2024-01-16T13:13:33;12.47;;;3.53;;
20482;SDS011;10400;53.198;6.592;2024-01-16T13:15:59;9.38;;;3.28;;
20482;SDS011;10400;53.198;6.592;2024-01-16T13:18:27;7.33;;;2.73;;
20482;SDS011;10400;53.198;6.592;2024-01-16T13:20:54;10.57;;;3.53;;
20482;SDS011;10400;53.198;6.592;2024-01-16T13:23:21;11.03;;;3.50;;
20482;SDS011;10400;53.198;6.592;2024-01-16T13:25:52;6.47;;;3.08;;
20482;SDS011;10400;53.198;6.592;2024-01-16T13:28:20;7.20;;;3.42;;
20482;SDS011;10400;53.198;6.592;2024-01-16T13:30:47;11.23;;;3.33;;
20482;SDS011;10400;53.198;6.592;2024-01-16T13:33:14;6.67;;;3.00;;
20482;SDS011;10400;53.198;6.592;2024-01-16T13:35:41;5.97;;;3.40;;
20482;SDS011;10400;53.198;6.592;2024-01-16T13:38:08;8.13;;;3.00;;
20482;SDS011;10400;53.198;6.592;2024-01-16T13:40:35;10.00;;;3.30;;
20482;SDS011;10400;53.198;6.592;2024-01-16T13:43:02;7.53;;;3.30;;
20482;SDS011;10400;53.198;6.592;2024-01-16T13:45:28;10.50;;;3.20;;
20482;SDS011;10400;53.198;6.592;2024-01-16T13:47:55;10.23;;;3.28;;
20482;SDS011;10400;53.198;6.592;2024-01-16T13:50:21;6.25;;;2.78;;
20482;SDS011;10400;53.198;6.592;2024-01-16T13:52:47;11.00;;;3.47;;
20482;SDS011;10400;53.198;6.592;2024-01-16T13:55:12;8.27;;;2.67;;
20482;SDS011;10400;53.198;6.592;2024-01-16T13:57:38;9.52;;;3.17;;
20482;SDS011;10400;53.198;6.592;2024-01-16T14:00:05;6.95;;;3.10;;
20482;SDS011;10400;53.198;6.592;2024-01-16T14:02:38;6.03;;;2.80;;
20482;SDS011;10400;53.198;6.592;2024-01-16T14:05:07;10.38;;;3.70;;
20482;SDS011;10400;53.198;6.592;2024-01-16T14:07:36;8.20;;;3.03;;
20482;SDS011;10400;53.198;6.592;2024-01-16T14:10:05;12.85;;;3.63;;
20482;SDS011;10400;53.198;6.592;2024-01-16T14:12:38;8.53;;;2.87;;
20482;SDS011;10400;53.198;6.592;2024-01-16T14:15:04;10.73;;;3.83;;
20482;SDS011;10400;53.198;6.592;2024-01-16T14:17:34;8.23;;;3.40;;
20482;SDS011;10400;53.198;6.592;2024-01-16T14:20:00;8.57;;;3.37;;
20482;SDS011;10400;53.198;6.592;2024-01-16T14:22:27;12.45;;;3.35;;
20482;SDS011;10400;53.198;6.592;2024-01-16T14:24:53;5.85;;;3.53;;
20482;SDS011;10400;53.198;6.592;2024-01-16T14:27:18;6.43;;;3.08;;
20482;SDS011;10400;53.198;6.592;2024-01-16T14:29:44;6.88;;;3.00;;
20482;SDS011;10400;53.198;6.592;2024-01-16T14:32:10;10.03;;;2.90;;
20482;SDS011;10400;53.198;6.592;2024-01-16T14:34:35;8.85;;;2.78;;
20482;SDS011;10400;53.198;6.592;2024-01-16T14:37:01;6.10;;;3.05;;
20482;SDS011;10400;53.198;6.592;2024-01-16T14:39:27;7.78;;;2.75;;
20482;SDS011;10400;53.198;6.592;2024-01-16T14:41:55;6.22;;;2.85;;
20482;SDS011;10400;53.198;6.592;2024-01-16T14:44:23;7.90;;;2.60;;
20482;SDS011;10400;53.198;6.592;2024-01-16T14:46:49;8.98;;;2.95;;
20482;SDS011;10400;53.198;6.592;2024-01-16T14:49:14;10.23;;;2.40;;
20482;SDS011;10400;53.198;6.592;2024-01-16T14:51:41;8.02;;;2.50;;
20482;SDS011;10400;53.198;6.592;2024-01-16T14:54:06;6.80;;;1.83;;
20482;SDS011;10400;53.198;6.592;2024-01-16T14:56:32;12.95;;;2.40;;